Time;durP1;ratioP1;P1;durP2;ratioP2;P2;SDS_P1;SDS_P2;PMS_P1;PMS_P2;Temp;Humidity;BMP_temperature;BMP_pressure;BME280_temperature;BME280_humidity;BME280_pressure;Samples;Min_cycle;Max_cycle;Signal;HPM_P1;HPM_P2
2021/03/27 00:00:28;;;;;;;6.20;3.47;;;6.30;99.90;;;6.04;77.79;102005.56;4170870;28;20064;-75
2021/03/27 00:02:48;;;;;;;13.40;4.80;;;6.40;99.90;;;5.99;77.76;102009.41;4152250;28;20026;-75
2021/03/27 00:05:10;;;;;;;17.58;5.35;;;6.40;99.90;;;5.99;77.78;102012.03;4178811;28;20033;-74
2021/03/27 00:07:46;;;;;;;11.10;4.00;;;6.30;99.90;;;5.86;78.54;102011.94;4168000;28;20025;-75
2021/03/27 00:10:18;;;;;;;11.10;4.38;;;6.30;99.90;;;6.03;77.94;102021.41;4169611;28;20029;-75
2021/03/27 00:12:46;;;;;;;16.25;4.25;;;6.30;99.90;;;6.06;78.32;102018.59;4169454;28;20032;-75
2021/03/27 00:15:22;;;;;;;9.77;3.88;;;6.30;99.90;;;6.14;78.28;102016.31;4169883;28;20044;-75
2021/03/27 00:17:49;;;;;;;8.23;4.63;;;6.40;99.90;;;6.17;76.93;102017.91;4163691;28;20556;-75
2021/03/27 00:20:00;;;;;;;10.98;4.72;;;6.40;99.90;;;6.04;77.90;102017.81;4168183;28;20033;-75
2021/03/27 00:22:25;;;;;;;9.52;3.90;;;6.40;99.90;;;5.95;78.20;102027.09;4167733;28;20036;-75
2021/03/27 00:24:54;;;;;;;10.75;4.13;;;6.30;99.90;;;5.90;79.62;102020.47;4170745;28;20420;-75
2021/03/27 00:27:21;;;;;;;7.60;3.50;;;6.20;99.90;;;5.89;79.29;102003.91;4185641;28;20033;-75
2021/03/27 00:29:32;;;;;;;11.32;3.10;;;6.20;99.90;;;5.85;79.95;102018.16;4168247;28;20040;-75
2021/03/27 00:31:42;;;;;;;11.07;3.83;;;6.20;99.90;;;5.92;80.11;102023.81;4169027;28;20570;-75
2021/03/27 00:34:14;;;;;;;8.63;3.50;;;6.20;99.90;;;5.88;79.57;102011.88;4167959;28;20025;-75
2021/03/27 00:36:21;;;;;;;12.90;3.25;;;6.20;99.90;;;5.78;80.40;102019.41;4142480;28;20044;-75
2021/03/27 00:38:28;;;;;;;11.00;3.90;;;6.20;99.90;;;5.69;80.86;102013.91;4167416;28;20512;-75
2021/03/27 00:40:39;;;;;;;10.68;3.53;;;6.10;99.90;;;5.74;80.73;102019.69;4151502;28;20026;-75
2021/03/27 00:43:04;;;;;;;12.77;5.15;;;6.00;99.90;;;5.71;80.84;102023.34;4168231;28;20087;-75
2021/03/27 00:45:25;;;;;;;10.02;4.38;;;6.00;99.90;;;5.53;81.22;102012.22;4169867;28;20120;-75
2021/03/27 00:47:31;;;;;;;10.98;5.43;;;5.90;99.90;;;5.64;81.55;102034.28;4168821;28;20130;-75
2021/03/27 00:49:46;;;;;;;12.55;6.97;;;6.00;99.90;;;5.59;81.24;102026.69;4167852;28;20108;-75
2021/03/27 00:51:55;;;;;;;14.52;5.53;;;5.90;99.90;;;5.79;80.83;102030.75;4167575;28;20077;-74
2021/03/27 00:54:06;;;;;;;9.68;4.90;;;6.00;99.90;;;5.69;81.11;102025.22;4168072;28;20112;-75
2021/03/27 00:56:28;;;;;;;11.23;5.28;;;6.00;99.90;;;5.54;81.33;102028.75;4185003;28;20045;-75
2021/03/27 00:58:51;;;;;;;8.02;4.35;;;6.00;99.90;;;5.71;81.20;102035.56;4168054;28;20564;-75
2021/03/27 01:01:07;;;;;;;9.32;4.15;;;6.00;99.90;;;5.67;81.10;102031.47;4168408;28;20396;-75
2021/03/27 01:03:36;;;;;;;10.75;3.85;;;6.00;99.90;;;5.69;82.24;102035.69;4166881;28;20075;-75
2021/03/27 01:05:38;;;;;;;10.60;3.72;;;6.00;99.90;;;5.77;81.90;102048.28;4172804;28;20457;-75
2021/03/27 01:07:40;;;;;;;10.55;4.90;;;6.00;99.90;;;5.77;81.36;102035.19;4184961;28;20033;-75
2021/03/27 01:09:56;;;;;;;7.28;3.70;;;6.00;99.90;;;5.71;81.45;102039.03;4167279;28;20554;-75
2021/03/27 01:12:15;;;;;;;14.38;3.55;;;6.10;99.90;;;5.64;82.16;102027.28;4168118;28;20037;-74
2021/03/27 01:14:24;;;;;;;6.13;3.33;;;6.10;99.90;;;5.67;82.17;102042.81;4167816;28;20456;-75
2021/03/27 01:16:32;;;;;;;10.57;3.72;;;6.00;99.90;;;5.71;81.96;102039.03;4167771;28;20033;-75
2021/03/27 01:18:41;;;;;;;10.60;4.05;;;6.00;99.90;;;5.74;82.04;102043.25;4167580;28;20044;-75
2021/03/27 01:20:50;;;;;;;12.25;4.10;;;6.10;99.90;;;5.85;81.53;102048.69;4167233;28;20026;-75
2021/03/27 01:22:54;;;;;;;14.65;4.57;;;6.10;99.90;;;5.84;80.81;102052.22;4184973;28;20107;-75
2021/03/27 01:25:00;;;;;;;8.63;3.63;;;6.20;99.90;;;5.74;81.26;102044.09;4185042;28;20052;-75
2021/03/27 01:27:19;;;;;;;9.25;4.22;;;6.20;99.90;;;5.89;81.05;102058.06;4167239;28;20068;-75
2021/03/27 01:29:57;;;;;;;8.80;3.17;;;6.20;99.90;;;5.76;81.66;102059.72;4167554;28;20042;-75
2021/03/27 01:32:23;;;;;;;12.65;3.35;;;6.20;99.90;;;5.74;81.23;102053.72;4184896;28;20021;-75
2021/03/27 01:34:41;;;;;;;7.95;3.30;;;6.20;99.90;;;5.75;81.63;102060.66;4168046;28;20033;-75
2021/03/27 01:37:22;;;;;;;11.13;3.63;;;6.10;99.90;;;5.63;82.62;102066.63;4166706;28;20053;-75
2021/03/27 01:39:34;;;;;;;15.18;3.80;;;6.10;99.90;;;5.68;82.56;102070.63;4184802;28;20033;-75
2021/03/27 01:42:02;;;;;;;6.28;3.17;;;6.10;99.90;;;5.72;82.80;102073.91;4167344;28;20033;-75
2021/03/27 01:44:54;;;;;;;13.35;5.18;;;6.00;99.90;;;5.74;82.10;102070.28;4184734;28;20136;-75
2021/03/27 01:47:11;;;;;;;12.73;3.97;;;6.00;99.90;;;5.65;82.55;102069.97;4159016;28;20439;-74
2021/03/27 01:49:35;;;;;;;7.78;4.60;;;6.00;99.90;;;5.65;82.35;102069.97;4184721;28;20036;-74
2021/03/27 01:52:03;;;;;;;11.63;3.97;;;6.00;99.90;;;5.79;81.56;102070.00;4184592;28;20029;-75
2021/03/27 01:54:11;;;;;;;7.75;3.88;;;6.00;99.90;;;5.73;80.83;102080.84;4184769;28;20252;-75
2021/03/27 01:56:34;;;;;;;11.23;3.80;;;6.00;99.90;;;5.72;81.08;102081.78;4166961;28;20045;-75
2021/03/27 01:59:21;;;;;;;9.02;3.33;;;6.00;99.90;;;5.73;80.48;102091.31;4168202;28;20030;-75
2021/03/27 02:01:34;;;;;;;11.73;3.67;;;6.00;99.90;;;5.83;81.02;102087.19;4174082;28;20427;-75
2021/03/27 02:03:57;;;;;;;12.32;3.88;;;6.10;99.90;;;5.89;80.04;102089.47;4158899;28;20437;-75
2021/03/27 02:06:08;;;;;;;13.07;3.25;;;6.10;99.90;;;5.83;80.09;102095.91;4150440;28;20030;-75
2021/03/27 02:08:45;;;;;;;10.93;3.00;;;6.10;99.90;;;6.02;79.00;102090.44;4151790;28;20461;-75
2021/03/27 02:11:30;;;;;;;11.70;2.53;;;6.30;99.90;;;5.88;80.07;102090.44;4158178;28;20057;-75
2021/03/27 02:14:04;;;;;;;8.93;3.03;;;6.20;99.90;;;5.84;79.80;102089.75;4168127;28;20025;-74
2021/03/27 02:16:35;;;;;;;8.93;3.85;;;6.20;99.90;;;5.84;80.34;102079.28;4170073;28;20021;-75
2021/03/27 02:19:05;;;;;;;10.43;3.10;;;6.20;99.90;;;5.86;80.57;102076.56;4171210;28;20064;-75
2021/03/27 02:21:24;;;;;;;10.25;2.58;;;6.20;99.90;;;5.93;80.01;102078.75;4170769;28;20096;-75
2021/03/27 02:23:55;;;;;;;9.65;2.13;;;6.20;99.90;;;5.88;80.22;102074.72;4171080;28;20030;-75
2021/03/27 02:26:20;;;;;;;8.45;2.80;;;6.20;99.90;;;5.95;80.53;102073.41;4170975;28;20026;-75
2021/03/27 02:29:04;;;;;;;4.72;2.20;;;6.20;99.90;;;5.82;80.96;102080.31;4171036;28;20083;-75
2021/03/27 02:31:19;;;;;;;9.32;2.75;;;6.20;99.90;;;5.75;80.08;102042.31;4170779;28;20029;-75
2021/03/27 02:33:47;;;;;;;9.50;2.70;;;6.10;99.90;;;5.80;80.92;102085.63;4169816;28;20100;-74
2021/03/27 02:36:41;;;;;;;6.93;2.80;;;6.10;99.90;;;5.77;81.45;102079.72;4170570;28;20025;-75
2021/03/27 02:39:05;;;;;;;7.72;3.28;;;6.10;99.90;;;5.61;81.97;102061.50;4169798;28;20559;-75
2021/03/27 02:41:37;;;;;;;14.65;4.05;;;6.00;99.90;;;5.64;81.28;102087.47;4153679;28;20453;-75
2021/03/27 02:43:52;;;;;;;16.38;5.10;;;6.00;99.90;;;5.61;81.45;102090.28;4169590;28;20068;-74
2021/03/27 02:46:11;;;;;;;12.48;4.28;;;5.90;99.90;;;5.59;81.84;102097.38;4169387;28;20100;-75
2021/03/27 02:48:20;;;;;;;12.35;4.53;;;5.90;99.90;;;5.52;81.46;102090.84;4170640;28;20097;-75
2021/03/27 02:51:06;;;;;;;11.18;3.47;;;5.90;99.90;;;5.38;82.01;102091.63;4170236;28;20036;-75
2021/03/27 02:53:43;;;;;;;12.18;4.82;;;5.80;99.90;;;5.41;82.39;102101.91;4170677;28;20116;-75
2021/03/27 02:56:06;;;;;;;10.40;4.22;;;5.80;99.90;;;5.45;82.62;102092.97;4158901;28;20073;-75
2021/03/27 02:58:55;;;;;;;13.45;4.20;;;5.80;99.90;;;5.53;82.29;102090.72;4169362;28;20037;-75
2021/03/27 03:01:29;;;;;;;9.93;3.97;;;5.80;99.90;;;5.34;83.33;102090.13;4116710;28;20041;-75
2021/03/27 03:03:47;;;;;;;9.05;3.55;;;5.70;99.90;;;5.43;83.32;102100.06;4160737;28;20033;-75
2021/03/27 03:05:55;;;;;;;8.60;3.80;;;5.70;99.90;;;5.41;83.84;102091.44;4153844;28;20420;-75
2021/03/27 03:08:30;;;;;;;16.75;4.40;;;5.70;99.90;;;5.37;83.05;102091.72;4153679;28;20133;-75
2021/03/27 03:10:41;;;;;;;10.10;4.50;;;5.70;99.90;;;5.48;83.10;102098.00;4157344;28;20075;-76
2021/03/27 03:13:16;;;;;;;8.93;4.13;;;5.70;99.90;;;5.68;83.04;102096.81;4170236;28;20029;-74
2021/03/27 03:15:26;;;;;;;11.48;3.95;;;5.80;99.90;;;5.53;82.60;102098.56;4169018;28;20086;-74
2021/03/27 03:18:17;;;;;;;12.60;4.00;;;5.90;99.90;;;5.36;83.24;102098.72;4168828;28;20033;-75
2021/03/27 03:20:56;;;;;;;10.07;3.35;;;5.80;99.90;;;5.50;83.50;102108.38;4169497;28;20041;-74
2021/03/27 03:23:06;;;;;;;11.15;3.15;;;5.80;99.90;;;5.49;83.66;102114.56;4168931;28;20347;-74
2021/03/27 03:25:16;;;;;;;9.90;3.13;;;5.80;99.90;;;5.49;83.30;102112.78;4169533;28;20374;-75
2021/03/27 03:27:54;;;;;;;7.68;2.17;;;5.80;99.90;;;5.43;83.30;102117.53;4168735;28;20021;-75
2021/03/27 03:30:52;;;;;;;9.65;3.20;;;5.80;99.90;;;5.40;83.73;102123.78;4170046;28;20025;-75
2021/03/27 03:32:59;;;;;;;11.77;3.22;;;5.80;99.90;;;5.43;83.60;102118.38;4163154;28;20512;-75
2021/03/27 03:35:24;;;;;;;7.13;2.80;;;5.80;99.90;;;5.53;83.46;102118.66;4169900;28;20028;-74
2021/03/27 03:37:57;;;;;;;12.80;4.43;;;5.80;99.90;;;5.33;84.62;102132.06;4169915;28;20030;-75
2021/03/27 03:40:50;;;;;;;10.70;3.40;;;5.80;99.90;;;5.35;84.93;102130.19;4168813;28;20108;-75
2021/03/27 03:43:03;;;;;;;10.45;2.38;;;5.70;99.90;;;5.34;85.46;102139.00;4167087;28;20045;-75
2021/03/27 03:45:22;;;;;;;11.60;2.50;;;5.70;99.90;;;5.38;84.70;102130.03;4169620;28;20033;-75
2021/03/27 03:48:03;;;;;;;8.88;2.47;;;5.70;99.90;;;5.40;85.52;102129.03;4169594;28;20397;-75
2021/03/27 03:50:51;;;;;;;8.20;2.15;;;5.70;99.90;;;5.42;84.93;102142.00;4169719;28;20021;-75
2021/03/27 03:53:14;;;;;;;10.23;2.15;;;5.80;99.90;;;5.49;84.95;102138.13;4142081;28;20046;-75
2021/03/27 03:55:37;;;;;;;7.55;2.75;;;5.80;99.90;;;5.39;85.09;102135.19;4169819;28;20021;-75
2021/03/27 03:58:02;;;;;;;8.35;2.45;;;5.80;99.90;;;5.34;85.66;102146.84;4169626;28;20041;-76
2021/03/27 04:00:32;;;;;;;9.43;3.13;;;5.70;99.90;;;5.38;85.90;102145.72;4157475;28;20022;-75
2021/03/27 04:03:14;;;;;;;6.93;2.50;;;5.70;99.90;;;5.39;86.33;102148.25;4153592;28;20030;-75
2021/03/27 04:05:36;;;;;;;6.32;2.10;;;5.70;99.90;;;5.40;86.32;102160.44;4153317;28;20824;-75
2021/03/27 04:08:09;;;;;;;10.10;2.50;;;5.70;99.90;;;5.47;85.66;102156.50;4151882;28;20029;-75
2021/03/27 04:10:17;;;;;;;9.25;2.50;;;5.70;99.90;;;5.50;85.55;102153.72;4136294;28;20532;-75
2021/03/27 04:12:30;;;;;;;14.40;4.53;;;5.70;99.90;;;5.40;85.90;102168.28;4151840;28;20049;-75
2021/03/27 04:14:38;;;;;;;7.03;2.17;;;5.70;99.90;;;5.34;86.54;102168.63;4152982;28;20064;-75
2021/03/27 04:16:44;;;;;;;8.70;2.55;;;5.60;99.90;;;5.52;86.32;102170.19;4151664;28;20033;-75
2021/03/27 04:18:54;;;;;;;7.30;3.08;;;5.70;99.90;;;5.67;85.68;102175.47;4151841;28;20030;-75
2021/03/27 04:21:00;;;;;;;11.40;3.00;;;5.80;99.90;;;5.63;85.51;102177.41;4152564;28;20105;-75
2021/03/27 04:23:39;;;;;;;5.50;1.92;;;5.80;99.90;;;5.58;85.71;102158.53;4152717;28;20109;-75
2021/03/27 04:25:59;;;;;;;9.40;2.60;;;5.90;99.90;;;5.65;85.51;102180.78;4148774;28;20041;-75
2021/03/27 04:28:05;;;;;;;7.32;2.13;;;5.80;99.90;;;5.47;86.26;102187.06;4152521;28;20097;-75
2021/03/27 04:30:21;;;;;;;7.78;2.75;;;5.90;99.90;;;5.54;86.56;102184.03;4152813;28;20532;-75
2021/03/27 04:32:52;;;;;;;14.68;2.60;;;5.80;99.90;;;5.64;86.39;102183.50;4152686;28;20085;-75
2021/03/27 04:35:03;;;;;;;11.27;2.50;;;5.90;99.90;;;5.63;86.12;102187.03;4151551;28;20040;-75
2021/03/27 04:37:39;;;;;;;6.50;2.65;;;5.80;99.90;;;5.54;86.80;102194.50;4152474;28;20037;-75
2021/03/27 04:39:42;;;;;;;;;;;5.90;99.90;;;5.53;86.21;102192.78;4129992;28;20051;-75
2021/03/27 04:42:31;;;;;;;6.90;2.58;;;5.80;99.90;;;5.48;86.42;102199.22;4151429;28;19920;-75
2021/03/27 04:44:56;;;;;;;10.10;2.90;;;5.80;99.90;;;5.56;87.19;102197.00;4151600;28;20037;-75
2021/03/27 04:47:18;;;;;;;12.40;2.60;;;5.80;99.90;;;5.57;86.33;102202.16;4151529;28;20165;-75
2021/03/27 04:49:50;;;;;;;13.77;2.67;;;5.80;99.90;;;5.56;87.29;102208.31;4151139;28;20030;-75
2021/03/27 04:51:53;;;;;;;10.82;2.83;;;5.80;99.90;;;5.64;87.24;102204.44;4148757;28;20038;-75
2021/03/27 04:54:12;;;;;;;10.10;3.30;;;5.80;99.90;;;5.47;87.70;102206.22;4152286;28;20048;-74
2021/03/27 04:56:51;;;;;;;9.80;2.45;;;5.80;99.90;;;5.57;87.89;102214.41;4159985;28;20046;-75
2021/03/27 04:58:59;;;;;;;8.88;2.65;;;5.80;99.90;;;5.68;87.33;102216.38;4145000;28;20493;-75
2021/03/27 05:01:41;;;;;;;11.25;2.40;;;5.90;99.90;;;5.47;88.07;102215.84;4184852;28;20119;-75
2021/03/27 05:03:57;;;;;;;12.15;3.30;;;5.80;99.90;;;5.42;88.67;102213.50;4183169;28;20027;-75
2021/03/27 05:06:37;;;;;;;13.30;4.03;;;5.80;99.90;;;5.52;87.26;102219.91;4168450;28;20033;-75
2021/03/27 05:09:07;;;;;;;13.82;2.92;;;5.90;99.90;;;5.48;87.98;102226.25;4151693;28;20473;-75
2021/03/27 05:11:33;;;;;;;10.30;3.20;;;5.80;99.90;;;5.61;88.15;102236.03;4152216;28;20034;-75
2021/03/27 05:13:48;;;;;;;19.08;3.47;;;5.90;99.90;;;5.70;86.80;102238.97;4168367;28;20032;-75
2021/03/27 05:15:56;;;;;;;13.65;3.70;;;5.90;99.90;;;5.55;87.25;102238.03;4151892;28;20037;-75
2021/03/27 05:18:17;;;;;;;14.52;2.88;;;5.90;99.90;;;5.47;87.85;102236.78;4168518;28;20025;-75
2021/03/27 05:20:33;;;;;;;13.63;3.40;;;5.80;99.90;;;5.61;86.92;102238.63;4173248;28;20036;-74
2021/03/27 05:22:56;;;;;;;11.07;4.07;;;5.80;99.90;;;5.64;87.23;102235.84;4185093;28;20026;-75
2021/03/27 05:25:13;;;;;;;10.80;3.40;;;5.90;99.90;;;5.70;87.63;102244.19;4168348;28;20049;-74
2021/03/27 05:27:53;;;;;;;7.22;3.20;;;5.90;99.90;;;5.68;87.03;102255.66;4185020;28;20068;-75
2021/03/27 05:30:12;;;;;;;9.73;2.88;;;6.00;99.90;;;5.62;87.13;102249.00;4152674;28;20041;-75
2021/03/27 05:32:50;;;;;;;12.85;3.67;;;5.90;99.90;;;5.47;87.84;102242.88;4177919;28;20033;-75
2021/03/27 05:34:53;;;;;;;14.45;4.38;;;5.90;99.90;;;5.57;87.91;102251.91;4149349;28;20091;-75
2021/03/27 05:37:15;;;;;;;15.30;4.35;;;5.90;99.90;;;5.64;87.96;102254.16;4184753;28;20075;-75
2021/03/27 05:39:39;;;;;;;13.25;3.20;;;6.00;99.90;;;5.61;87.92;102257.81;4184706;28;20020;-75
2021/03/27 05:42:27;;;;;;;11.52;3.03;;;6.00;99.90;;;5.62;87.31;102258.63;4184996;28;20025;-75
2021/03/27 05:44:58;;;;;;;9.05;3.30;;;5.90;99.90;;;5.56;87.22;102265.06;4123985;28;20473;-75
2021/03/27 05:47:49;;;;;;;13.35;3.60;;;5.80;99.90;;;5.62;87.85;102266.47;4184324;28;20079;-75
2021/03/27 05:50:36;;;;;;;11.63;2.85;;;5.90;99.90;;;5.66;87.09;102274.09;4142205;28;20100;-75
2021/03/27 05:53:26;;;;;;;12.68;3.70;;;5.90;99.90;;;5.66;86.91;102271.47;4171794;28;20025;-75
2021/03/27 05:56:09;;;;;;;10.18;3.58;;;5.90;99.90;;;5.70;86.81;102277.38;4087390;29;20493;-75
2021/03/27 05:59:01;;;;;;;17.95;3.95;;;6.00;99.90;;;5.60;86.60;102277.06;4181019;28;20029;-75
2021/03/27 06:01:26;;;;;;;18.23;5.72;;;5.90;99.90;;;5.62;87.24;102263.88;4187735;28;20040;-75
2021/03/27 06:04:14;;;;;;;11.23;2.75;;;5.90;99.90;;;5.59;86.77;102273.59;4172373;28;20021;-75
2021/03/27 06:06:48;;;;;;;10.05;2.85;;;5.90;99.90;;;5.61;87.13;102280.50;4180439;28;20405;-75
2021/03/27 06:08:58;;;;;;;10.55;3.00;;;5.90;99.90;;;5.80;86.74;102286.38;4170173;28;20033;-75
2021/03/27 06:11:15;;;;;;;11.20;3.20;;;6.00;99.90;;;5.74;85.68;102284.09;4169799;28;20033;-75
2021/03/27 06:13:39;;;;;;;14.60;3.75;;;6.00;99.90;;;5.83;85.86;102296.69;4169556;28;20651;-75
2021/03/27 06:16:04;;;;;;;11.13;3.80;;;6.10;99.90;;;5.71;87.04;102294.75;4187510;28;20527;-75
2021/03/27 06:18:45;;;;;;;16.30;3.47;;;6.00;99.90;;;5.66;87.09;102302.03;4187268;28;20048;-75
2021/03/27 06:21:04;;;;;;;11.15;3.83;;;6.00;99.90;;;5.76;86.70;102292.75;4171119;28;20064;-75
2021/03/27 06:23:35;;;;;;;22.15;4.43;;;6.10;99.90;;;5.81;86.83;102307.25;4169460;28;20512;-75
2021/03/27 06:26:14;;;;;;;20.83;4.78;;;6.10;99.90;;;5.94;86.04;102312.69;4187269;28;20037;-75
2021/03/27 06:28:40;;;;;;;15.93;4.07;;;6.20;99.90;;;5.77;86.87;102307.50;4187142;28;20029;-75
2021/03/27 06:31:06;;;;;;;10.27;4.30;;;6.20;99.90;;;5.90;87.13;102324.25;4169650;28;20036;-75
2021/03/27 06:33:37;;;;;;;12.00;3.67;;;6.20;99.90;;;5.98;86.10;102317.63;4187165;28;20029;-75
2021/03/27 06:36:01;;;;;;;13.43;3.50;;;6.20;99.90;;;5.78;86.63;102311.81;4171401;28;20029;-75
2021/03/27 06:38:38;;;;;;;13.73;4.18;;;6.20;99.90;;;6.00;86.21;102328.84;4153169;28;20598;-75
2021/03/27 06:41:09;;;;;;;14.05;3.85;;;6.30;99.90;;;6.12;86.17;102322.09;4184092;28;20063;-74
2021/03/27 06:43:45;;;;;;;10.75;4.05;;;6.40;99.90;;;6.28;85.25;102332.50;4187086;28;20508;-76
2021/03/27 06:46:00;;;;;;;;;;;6.50;99.90;;;6.16;85.79;102331.44;4187302;28;20158;-75
2021/03/27 06:48:40;;;;;;;15.45;4.15;;;6.60;99.90;;;6.25;85.49;102336.16;4187040;28;19913;-75
2021/03/27 06:51:16;;;;;;;13.23;4.25;;;6.60;99.90;;;6.22;85.97;102328.47;4186500;28;20029;-75
2021/03/27 06:53:28;;;;;;;15.25;4.78;;;6.70;99.90;;;6.28;86.05;102341.22;4171853;28;20047;-75
2021/03/27 06:56:08;;;;;;;13.57;3.83;;;6.70;99.90;;;6.34;85.85;102347.88;4186625;28;20049;-75
2021/03/27 06:58:35;;;;;;;17.98;3.95;;;6.70;99.90;;;6.47;85.46;102351.47;4154546;28;20041;-75
2021/03/27 07:00:56;;;;;;;12.75;3.20;;;6.80;99.90;;;6.51;85.38;102348.56;4172285;28;20056;-75
2021/03/27 07:03:53;;;;;;;17.42;5.35;;;6.90;99.90;;;6.58;85.02;102347.28;4170800;28;20028;-75
2021/03/27 07:06:30;;;;;;;13.05;3.58;;;7.00;99.90;;;6.65;85.23;102359.09;4176999;28;20029;-75
2021/03/27 07:08:40;;;;;;;12.18;3.90;;;7.10;99.90;;;6.67;85.19;102351.97;4186797;28;20120;-75
2021/03/27 07:11:35;;;;;;;14.45;4.07;;;7.10;99.90;;;6.67;84.14;102361.63;4169324;28;20044;-75
2021/03/27 07:14:00;;;;;;;14.90;3.10;;;7.20;99.90;;;6.82;84.59;102359.84;4171625;28;20249;-75
2021/03/27 07:16:36;;;;;;;15.45;3.30;;;7.30;99.90;;;6.84;84.62;102348.31;4168646;28;20504;-75
2021/03/27 07:19:02;;;;;;;12.60;4.03;;;7.40;99.90;;;6.93;84.04;102362.69;4170502;28;20069;-75
2021/03/27 07:21:52;;;;;;;12.75;3.85;;;7.40;99.90;;;7.07;83.66;102360.06;4186454;28;20077;-75
2021/03/27 07:24:23;;;;;;;13.93;3.83;;;7.50;99.90;;;7.18;83.40;102350.59;4186649;28;20120;-76
2021/03/27 07:26:29;;;;;;;13.57;4.47;;;7.70;99.90;;;7.19;83.61;102362.78;4186443;28;20550;-75
2021/03/27 07:28:54;;;;;;;15.70;4.32;;;7.70;99.90;;;7.35;82.84;102360.03;4186665;28;20040;-76
2021/03/27 07:31:23;;;;;;;12.32;4.15;;;7.70;99.90;;;7.20;83.36;102368.84;4186561;28;20067;-75
2021/03/27 07:33:52;;;;;;;18.35;3.88;;;7.80;99.90;;;7.29;83.23;102364.84;4186425;28;20037;-75
2021/03/27 07:36:33;;;;;;;12.82;3.35;;;7.90;99.90;;;7.46;82.43;102370.72;4186208;28;20033;-75
2021/03/27 07:38:47;;;;;;;13.23;3.92;;;7.90;99.90;;;7.63;82.05;102375.75;4186373;28;20029;-75
2021/03/27 07:41:13;;;;;;;20.55;4.45;;;8.10;99.90;;;7.69;81.70;102375.34;4186491;28;20388;-75
2021/03/27 07:44:07;;;;;;;12.10;4.47;;;8.20;99.90;;;7.82;81.34;102374.56;4186344;28;20103;-75
2021/03/27 07:46:19;;;;;;;12.07;3.95;;;8.30;99.90;;;7.91;81.85;102376.59;4135387;28;20030;-75
2021/03/27 07:48:47;;;;;;;11.75;3.97;;;8.40;99.90;;;7.94;80.97;102379.03;4135071;28;20457;-75
2021/03/27 07:51:40;;;;;;;17.08;4.63;;;8.50;99.90;;;8.01;81.19;102375.91;4147766;28;20079;-75
2021/03/27 07:54:18;;;;;;;11.40;3.85;;;8.60;99.90;;;8.15;80.48;102372.41;4182534;28;20033;-75
2021/03/27 07:56:45;;;;;;;10.45;3.45;;;8.70;99.90;;;8.25;80.35;102381.34;4183109;28;20048;-75
2021/03/27 07:59:00;;;;;;;13.05;3.63;;;8.80;99.90;;;8.23;80.63;102375.34;4168643;28;20052;-75
2021/03/27 08:01:35;;;;;;;16.20;5.00;;;8.80;99.90;;;8.43;79.79;102380.16;4183454;28;20075;-76
2021/03/27 08:03:57;;;;;;;13.80;3.80;;;8.90;99.90;;;8.39;79.82;102383.97;4184568;28;20060;-75
2021/03/27 08:06:31;;;;;;;12.40;3.58;;;9.00;99.90;;;8.31;80.30;102392.34;4172883;28;20089;-78
2021/03/27 08:08:52;;;;;;;19.45;5.00;;;9.00;99.90;;;8.47;80.05;102392.16;4161210;28;20100;-78
2021/03/27 08:11:24;;;;;;;13.15;3.60;;;9.00;99.90;;;8.42;80.22;102394.28;4175653;28;20029;-78
2021/03/27 08:14:07;;;;;;;18.08;3.58;;;9.10;99.90;;;8.60;80.13;102400.91;4169212;28;20018;-78
2021/03/27 08:16:57;;;;;;;10.63;3.50;;;9.20;99.90;;;8.73;79.21;102401.78;4153035;28;20102;-78
2021/03/27 08:19:47;;;;;;;11.38;3.17;;;9.30;99.90;;;8.65;79.95;102400.59;4185419;28;20024;-79
2021/03/27 08:22:20;;;;;;;10.68;3.92;;;9.40;99.90;;;8.80;79.79;102403.06;4184789;28;20036;-79
2021/03/27 08:24:42;;;;;;;10.98;3.60;;;9.40;99.90;;;8.89;79.63;102407.69;4154138;28;20029;-78
2021/03/27 08:27:16;;;;;;;13.60;4.22;;;9.60;99.90;;;9.02;79.21;102406.84;4172387;28;20082;-79
2021/03/27 08:29:44;;;;;;;9.57;4.95;;;9.70;99.90;;;8.98;77.87;102418.53;4157619;28;20045;-79
2021/03/27 08:32:05;;;;;;;17.13;3.90;;;9.80;99.90;;;8.94;77.72;102425.78;4185016;28;20102;-79
2021/03/27 08:35:03;;;;;;;6.55;2.72;;;9.80;99.90;;;9.23;79.09;102421.16;4167282;28;20035;-79
2021/03/27 08:37:35;;;;;;;13.77;3.97;;;10.00;99.90;;;9.39;77.54;102427.88;4167153;28;20036;-79
2021/03/27 08:40:21;;;;;;;9.25;3.15;;;10.20;99.90;;;9.66;75.15;102435.63;4185109;28;20032;-79
2021/03/27 08:42:40;;;;;;;;;;;10.40;99.90;;;9.76;75.55;102441.09;4185255;28;20040;-78
2021/03/27 08:45:28;;;;;;;12.68;3.63;;;10.80;99.90;;;9.87;77.06;102444.66;4185049;28;20302;-78
2021/03/27 08:48:23;;;;;;;10.95;3.28;;;10.90;99.90;;;9.93;75.91;102441.56;4184791;28;20029;-78
2021/03/27 08:51:03;;;;;;;12.45;2.85;;;11.10;99.90;;;9.78;77.31;102442.66;4184696;28;20068;-79
2021/03/27 08:53:32;;;;;;;11.85;3.55;;;11.10;99.90;;;9.89;77.15;102447.16;4153932;28;20465;-79
2021/03/27 08:55:56;;;;;;;10.57;3.03;;;11.00;99.90;;;9.61;77.82;102448.31;4184322;28;20021;-79
2021/03/27 08:58:31;;;;;;;20.50;3.90;;;10.90;99.90;;;9.67;77.94;102452.28;4185047;28;20067;-79
2021/03/27 09:01:12;;;;;;;13.75;3.17;;;10.70;99.90;;;9.61;77.85;102453.56;4184831;28;20043;-79
2021/03/27 09:04:06;;;;;;;9.68;2.33;;;10.70;99.90;;;9.85;78.58;102456.25;4169680;28;20160;-78
2021/03/27 09:07:03;;;;;;;15.10;3.95;;;10.70;99.90;;;9.83;76.74;102464.25;4176336;28;20028;-78
2021/03/27 09:09:32;;;;;;;10.52;2.72;;;10.80;99.90;;;9.97;77.73;102458.84;4184800;28;20492;-79
2021/03/27 09:12:04;;;;;;;14.82;4.13;;;10.90;99.90;;;10.09;76.59;102469.47;4184520;28;20365;-79
2021/03/27 09:14:55;;;;;;;10.57;2.22;;;11.00;99.90;;;10.17;74.67;102472.44;4184621;28;20029;-78
2021/03/27 09:17:30;;;;;;;7.50;2.70;;;11.00;99.90;;;10.14;75.04;102473.50;4169313;28;20025;-78
2021/03/27 09:20:05;;;;;;;9.38;3.28;;;11.10;99.90;;;10.24;76.72;102471.03;4184709;28;20152;-79
2021/03/27 09:22:34;;;;;;;8.68;3.92;;;11.20;99.90;;;10.31;77.37;102480.16;4184693;28;20159;-79
2021/03/27 09:25:07;;;;;;;16.50;4.07;;;11.30;99.90;;;10.38;74.70;102471.72;4183513;28;20032;-78
2021/03/27 09:27:23;;;;;;;10.93;3.15;;;11.40;99.90;;;10.26;75.21;102475.25;4184441;28;20541;-79
2021/03/27 09:29:53;;;;;;;13.60;2.85;;;11.30;99.90;;;10.38;75.25;102476.13;4184459;28;20036;-79
2021/03/27 09:32:12;;;;;;;14.27;3.00;;;11.40;99.90;;;10.42;76.13;102483.69;4168039;28;20036;-79
2021/03/27 09:34:56;;;;;;;12.57;3.15;;;11.40;99.90;;;10.36;75.51;102483.34;4184396;28;20063;-79
2021/03/27 09:37:16;;;;;;;11.18;3.38;;;11.40;99.90;;;10.38;75.22;102481.41;4184302;28;20037;-78
2021/03/27 09:39:53;;;;;;;11.25;2.50;;;11.40;99.90;;;10.52;74.68;102476.81;4166534;28;20036;-78
2021/03/27 09:42:35;;;;;;;13.63;4.13;;;11.40;99.90;;;10.71;75.36;102484.22;4184622;28;20108;-79
2021/03/27 09:45:06;;;;;;;11.85;3.47;;;11.60;99.90;;;10.59;74.49;102482.47;4184566;28;20048;-78
2021/03/27 09:48:28;;;;;;;10.90;3.13;;;11.80;99.90;;;10.83;74.07;102478.00;4184174;28;20108;-79
2021/03/27 09:51:08;;;;;;;16.85;4.13;;;12.00;99.90;;;10.79;72.79;102473.91;4133384;28;20093;-79
2021/03/27 09:54:00;;;;;;;13.45;2.72;;;12.00;99.90;;;10.87;74.14;102482.09;4184513;28;20025;-79
2021/03/27 09:56:13;;;;;;;8.88;3.03;;;12.00;99.90;;;10.78;72.67;102487.22;4153278;28;20053;-79
2021/03/27 09:58:21;;;;;;;11.73;3.15;;;12.00;99.90;;;10.97;73.07;102484.88;4178240;28;20025;-78
2021/03/27 10:00:48;;;;;;;11.95;3.03;;;12.10;99.90;;;11.11;71.22;102482.00;4184277;28;20052;-78
2021/03/27 10:03:26;;;;;;;14.95;2.70;;;12.20;99.90;;;11.15;69.75;102486.13;4184305;28;20032;-79
2021/03/27 10:05:37;;;;;;;14.48;3.53;;;12.30;99.90;;;11.26;71.43;102499.34;4151003;28;20461;-78
2021/03/27 10:08:20;;;;;;;15.80;2.33;;;12.40;99.90;;;10.96;69.36;102499.88;4167593;28;20034;-78
2021/03/27 10:10:48;;;;;;;9.80;3.10;;;12.40;99.90;;;10.94;69.06;102504.44;4171345;28;20442;-79
2021/03/27 10:13:15;;;;;;;14.02;3.42;;;12.30;99.90;;;10.96;67.53;102505.16;4168218;28;20104;-79
2021/03/27 10:15:51;;;;;;;11.75;3.38;;;12.40;99.90;;;11.04;66.66;102508.06;4183877;28;20028;-79
2021/03/27 10:18:29;;;;;;;8.55;2.47;;;12.40;99.90;;;11.10;67.62;102501.47;4166885;28;20048;-79
2021/03/27 10:20:41;;;;;;;6.70;2.60;;;12.30;99.90;;;11.26;67.33;102498.53;4132708;28;20034;-78